Time;durP1;ratioP1;P1;durP2;ratioP2;P2;SDS_P1;SDS_P2;PMS_P1;PMS_P2;Temp;Humidity;BMP_temperature;BMP_pressure;BME280_temperature;BME280_humidity;BME280_pressure;Samples;Min_cycle;Max_cycle;Signal;HPM_P1;HPM_P2
2023/07/06 00:00:14;;;;;;;6.03;3.60;;;;;;;;;;5071019;28;20196;-53
2023/07/06 00:02:41;;;;;;;5.80;4.00;;;;;;;;;;5070890;28;20638;-53
2023/07/06 00:05:09;;;;;;;5.87;4.33;;;;;;;;;;5070791;28;20231;-53
2023/07/06 00:07:35;;;;;;;5.77;3.87;;;;;;;;;;5070788;28;20602;-53
2023/07/06 00:10:01;;;;;;;6.17;4.57;;;;;;;;;;5070705;28;20681;-54
2023/07/06 00:12:29;;;;;;;5.60;4.23;;;;;;;;;;5070841;28;20195;-53
2023/07/06 00:14:55;;;;;;;6.53;3.83;;;;;;;;;;5070765;28;20195;-53
2023/07/06 00:17:22;;;;;;;5.97;4.60;;;;;;;;;;5070814;28;20211;-53
2023/07/06 00:19:49;;;;;;;4.30;3.90;;;;;;;;;;5070636;28;20227;-53
2023/07/06 00:22:15;;;;;;;4.70;4.30;;;;;;;;;;5070654;28;20337;-52
2023/07/06 00:24:42;;;;;;;6.03;4.40;;;;;;;;;;5070718;28;20264;-53
2023/07/06 00:27:08;;;;;;;6.90;4.30;;;;;;;;;;5070596;28;20281;-52
2023/07/06 00:29:35;;;;;;;6.70;4.80;;;;;;;;;;5070860;28;20195;-53
2023/07/06 00:32:25;;;;;;;6.33;4.73;;;;;;;;;;5070560;28;20208;-53
2023/07/06 00:34:52;;;;;;;6.17;4.90;;;;;;;;;;5074429;28;20207;-52
2023/07/06 00:37:20;;;;;;;6.33;4.47;;;;;;;;;;5074432;28;20196;-53
2023/07/06 00:39:46;;;;;;;6.47;5.00;;;;;;;;;;5074360;28;20253;-52
2023/07/06 00:42:14;;;;;;;5.60;4.93;;;;;;;;;;5074352;28;20243;-52
2023/07/06 00:44:48;;;;;;;5.43;4.30;;;;;;;;;;5074428;28;20195;-53
2023/07/06 00:47:14;;;;;;;5.57;5.07;;;;;;;;;;5074273;28;20234;-52
2023/07/06 00:49:41;;;;;;;5.93;4.40;;;;;;;;;;5074207;28;20245;-52
2023/07/06 00:52:10;;;;;;;6.77;4.60;;;;;;;;;;5074044;28;20393;-52
2023/07/06 00:54:37;;;;;;;7.17;4.60;;;;;;;;;;5074292;28;20215;-52
2023/07/06 00:57:04;;;;;;;5.57;4.50;;;;;;;;;;5074018;28;20230;-52
2023/07/06 00:59:32;;;;;;;4.80;4.40;;;;;;;;;;5074059;28;20226;-52
2023/07/06 01:02:01;;;;;;;5.40;4.63;;;;;;;;;;5073904;28;20196;-53
2023/07/06 01:04:30;;;;;;;6.50;4.00;;;;;;;;;;5073963;28;20211;-52
2023/07/06 01:06:56;;;;;;;4.97;4.50;;;;;;;;;;5073733;28;20203;-52
2023/07/06 01:09:25;;;;;;;5.40;3.90;;;;;;;;;;5074020;28;20199;-51
2023/07/06 01:11:55;;;;;;;5.37;3.70;;;;;;;;;;5073819;28;20203;-52
2023/07/06 01:14:21;;;;;;;4.40;3.93;;;;;;;;;;5073938;28;20223;-52
2023/07/06 01:16:51;;;;;;;5.97;3.87;;;;;;;;;;5073863;28;20589;-52
2023/07/06 01:19:26;;;;;;;5.80;4.10;;;;;;;;;;5074025;28;20191;-52
2023/07/06 01:21:56;;;;;;;5.83;4.00;;;;;;;;;;5073676;28;20234;-52
2023/07/06 01:24:36;;;;;;;5.93;4.30;;;;;;;;;;5073655;28;20614;-52
2023/07/06 01:27:12;;;;;;;6.70;3.87;;;;;;;;;;5073395;28;20693;-51
2023/07/06 01:30:04;;;;;;;3.97;3.60;;;;;;;;;;5073637;28;20191;-51
2023/07/06 01:32:33;;;;;;;6.60;4.20;;;;;;;;;;5073595;28;20576;-52
2023/07/06 01:35:02;;;;;;;4.17;3.53;;;;;;;;;;5073414;28;20199;-51
2023/07/06 01:37:30;;;;;;;4.37;3.93;;;;;;;;;;5073443;28;20680;-52
2023/07/06 01:40:00;;;;;;;4.17;3.77;;;;;;;;;;5073291;28;20200;-52
2023/07/06 01:42:27;;;;;;;4.70;3.83;;;;;;;;;;5073225;28;20655;-51
2023/07/06 01:44:58;;;;;;;5.73;3.97;;;;;;;;;;5072246;28;20196;-52
2023/07/06 01:47:25;;;;;;;6.23;4.13;;;;;;;;;;5073411;28;20242;-52
2023/07/06 01:49:53;;;;;;;7.37;4.40;;;;;;;;;;5073156;28;20238;-52
2023/07/06 01:52:24;;;;;;;4.43;3.83;;;;;;;;;;5073130;28;20203;-51
2023/07/06 01:54:56;;;;;;;6.83;4.60;;;;;;;;;;5073120;28;20565;-51
2023/07/06 01:57:25;;;;;;;4.90;4.50;;;;;;;;;;5073159;28;20592;-53
2023/07/06 01:59:53;;;;;;;4.80;4.10;;;;;;;;;;5072954;28;20601;-50
2023/07/06 02:02:20;;;;;;;5.00;4.30;;;;;;;;;;5073089;28;20195;-50
2023/07/06 02:04:47;;;;;;;5.17;4.67;;;;;;;;;;5072777;28;20220;-51
2023/07/06 02:07:16;;;;;;;8.03;4.97;;;;;;;;;;5072889;28;20216;-52
2023/07/06 02:09:43;;;;;;;6.83;4.60;;;;;;;;;;5072941;28;20294;-52
2023/07/06 02:12:11;;;;;;;4.33;3.93;;;;;;;;;;5072755;28;20207;-51
2023/07/06 02:14:37;;;;;;;4.77;4.37;;;;;;;;;;5072871;28;20206;-57
2023/07/06 02:17:03;;;;;;;7.87;5.30;;;;;;;;;;5072648;28;20195;-51
2023/07/06 02:19:29;;;;;;;6.00;5.37;;;;;;;;;;5072634;28;20700;-51
2023/07/06 02:21:55;;;;;;;5.80;4.67;;;;;;;;;;5072443;28;20206;-52
2023/07/06 02:24:22;;;;;;;5.20;4.70;;;;;;;;;;5072764;28;20614;-52
2023/07/06 02:26:49;;;;;;;6.30;5.23;;;;;;;;;;5072305;28;20248;-52
2023/07/06 02:29:15;;;;;;;4.93;4.50;;;;;;;;;;5072370;28;20737;-51
2023/07/06 02:31:41;;;;;;;4.90;4.40;;;;;;;;;;5072353;28;20199;-52
2023/07/06 02:34:07;;;;;;;5.40;4.63;;;;;;;;;;5072317;28;20203;-52
2023/07/06 02:36:33;;;;;;;6.07;5.20;;;;;;;;;;5072241;28;20249;-52
2023/07/06 02:38:59;;;;;;;6.70;5.87;;;;;;;;;;5072179;28;20238;-52
2023/07/06 02:41:26;;;;;;;8.30;6.80;;;;;;;;;;5072143;28;20270;-52
2023/07/06 02:43:52;;;;;;;8.00;7.33;;;;;;;;;;5072041;28;20235;-52
2023/07/06 02:46:19;;;;;;;8.80;7.93;;;;;;;;;;5072186;28;20198;-52
2023/07/06 02:48:46;;;;;;;9.40;8.37;;;;;;;;;;5071909;28;20231;-51
2023/07/06 02:51:12;;;;;;;10.17;9.30;;;;;;;;;;5072064;28;20195;-51
2023/07/06 02:53:38;;;;;;;11.50;10.27;;;;;;;;;;5072021;28;20203;-51
2023/07/06 02:56:04;;;;;;;11.23;9.70;;;;;;;;;;5071662;28;20206;-51
2023/07/06 02:58:31;;;;;;;10.67;9.60;;;;;;;;;;5071907;28;20199;-52
2023/07/06 03:00:57;;;;;;;10.10;9.20;;;;;;;;;;5071914;28;20238;-52
2023/07/06 03:03:26;;;;;;;10.77;9.67;;;;;;;;;;5071679;28;20231;-52
2023/07/06 03:05:52;;;;;;;10.67;9.67;;;;;;;;;;5071547;28;20593;-51
2023/07/06 03:08:18;;;;;;;10.33;9.23;;;;;;;;;;5071642;28;20227;-53
2023/07/06 03:10:46;;;;;;;11.30;10.20;;;;;;;;;;5071246;28;20229;-53
2023/07/06 03:13:13;;;;;;;11.20;10.10;;;;;;;;;;5070641;28;20198;-52
2023/07/06 03:15:41;;;;;;;13.37;11.97;;;;;;;;;;5071515;28;20204;-51
2023/07/06 03:18:07;;;;;;;12.17;10.97;;;;;;;;;;5071363;28;20195;-51
2023/07/06 03:20:36;;;;;;;11.63;10.50;;;;;;;;;;5071340;28;20196;-52
2023/07/06 03:23:02;;;;;;;11.63;10.43;;;;;;;;;;5071222;28;20203;-52
2023/07/06 03:25:29;;;;;;;10.90;9.90;;;;;;;;;;5071313;28;20203;-51
2023/07/06 03:27:55;;;;;;;10.83;9.83;;;;;;;;;;5071227;28;20216;-52
2023/07/06 03:30:22;;;;;;;12.00;10.83;;;;;;;;;;5071401;28;20210;-52
2023/07/06 03:32:49;;;;;;;11.77;10.60;;;;;;;;;;5071152;28;20286;-52
2023/07/06 03:35:15;;;;;;;11.23;10.13;;;;;;;;;;5071238;28;20237;-51
2023/07/06 03:37:42;;;;;;;11.83;10.63;;;;;;;;;;5071320;28;20191;-52
2023/07/06 03:40:13;;;;;;;11.20;9.87;;;;;;;;;;5071056;28;20206;-51
2023/07/06 03:42:39;;;;;;;11.17;10.07;;;;;;;;;;5071155;28;20239;-52
2023/07/06 03:45:06;;;;;;;10.97;9.80;;;;;;;;;;5071467;28;20598;-52
2023/07/06 03:47:37;;;;;;;10.87;9.77;;;;;;;;;;5070859;28;20720;-51
2023/07/06 03:50:05;;;;;;;10.10;9.10;;;;;;;;;;5071030;28;20199;-51
2023/07/06 03:52:31;;;;;;;10.83;9.50;;;;;;;;;;5071035;28;20204;-51
2023/07/06 03:54:59;;;;;;;10.70;9.70;;;;;;;;;;5070919;28;20264;-51
2023/07/06 03:57:25;;;;;;;10.40;9.30;;;;;;;;;;5070971;28;20196;-52
2023/07/06 03:59:51;;;;;;;11.50;10.47;;;;;;;;;;5070818;28;20217;-51
2023/07/06 04:02:19;;;;;;;12.07;10.87;;;;;;;;;;5070934;28;20195;-51
2023/07/06 04:04:45;;;;;;;10.57;9.47;;;;;;;;;;5070668;28;20216;-51
2023/07/06 04:07:12;;;;;;;11.47;10.27;;;;;;;;;;5070366;28;20211;-52
2023/07/06 04:09:39;;;;;;;12.67;11.37;;;;;;;;;;5070843;28;20211;-51
2023/07/06 04:12:05;;;;;;;12.00;10.73;;;;;;;;;;5070700;28;20195;-52
2023/07/06 04:14:31;;;;;;;10.63;9.63;;;;;;;;;;5070813;28;20196;-52
2023/07/06 04:16:57;;;;;;;10.30;9.40;;;;;;;;;;5070600;28;20260;-50
2023/07/06 04:19:24;;;;;;;12.40;10.50;;;;;;;;;;5070922;28;20286;-50
2023/07/06 04:21:51;;;;;;;11.20;10.20;;;;;;;;;;5068896;28;20314;-52
2023/07/06 04:24:18;;;;;;;11.23;10.13;;;;;;;;;;5070924;28;20234;-50
2023/07/06 04:26:46;;;;;;;10.80;9.80;;;;;;;;;;5070758;28;20207;-52
2023/07/06 04:29:12;;;;;;;12.57;11.27;;;;;;;;;;5070516;28;20235;-51
2023/07/06 04:31:39;;;;;;;12.20;11.00;;;;;;;;;;5070803;28;20322;-51
2023/07/06 04:34:05;;;;;;;11.13;10.03;;;;;;;;;;5070505;28;20202;-52
2023/07/06 04:36:32;;;;;;;11.80;10.60;;;;;;;;;;5070523;28;20203;-50
2023/07/06 04:39:00;;;;;;;12.53;10.23;;;;;;;;;;5070580;28;20562;-50
2023/07/06 04:41:28;;;;;;;11.13;10.07;;;;;;;;;;5070482;28;20196;-50
2023/07/06 04:43:55;;;;;;;11.73;10.63;;;;;;;;;;5070193;28;20322;-50
2023/07/06 04:46:21;;;;;;;12.60;10.40;;;;;;;;;;5070481;28;20207;-51
2023/07/06 04:48:47;;;;;;;11.67;10.47;;;;;;;;;;5070381;28;20219;-50
2023/07/06 04:51:13;;;;;;;13.30;9.87;;;;;;;;;;5070434;28;20234;-50
2023/07/06 04:53:39;;;;;;;11.83;10.67;;;;;;;;;;5070402;28;20282;-52
2023/07/06 04:56:06;;;;;;;10.00;8.93;;;;;;;;;;5070228;28;20225;-50
2023/07/06 04:58:34;;;;;;;11.23;10.20;;;;;;;;;;5070296;28;20184;-50
2023/07/06 05:01:06;;;;;;;11.07;9.97;;;;;;;;;;5070208;28;20685;-51
2023/07/06 05:03:32;;;;;;;10.43;9.43;;;;;;;;;;5070182;28;20611;-52
2023/07/06 05:06:01;;;;;;;11.07;10.00;;;;;;;;;;5070080;28;20226;-52
2023/07/06 05:08:27;;;;;;;9.97;8.90;;;;;;;;;;5070274;28;20322;-51
2023/07/06 05:10:53;;;;;;;11.07;9.40;;;;;;;;;;5070089;28;20250;-51
2023/07/06 05:13:20;;;;;;;9.97;8.97;;;;;;;;;;5070201;28;20200;-51
2023/07/06 05:15:48;;;;;;;9.27;8.43;;;;;;;;;;5070133;28;20195;-51
2023/07/06 05:18:14;;;;;;;11.63;9.40;;;;;;;;;;5070097;28;20203;-52
2023/07/06 05:20:40;;;;;;;10.57;9.33;;;;;;;;;;5072402;28;20199;-51
2023/07/06 05:23:08;;;;;;;9.80;7.67;;;;;;;;;;5073696;28;20222;-52
2023/07/06 05:25:35;;;;;;;10.27;8.53;;;;;;;;;;5073702;28;20219;-52
2023/07/06 05:28:01;;;;;;;9.70;8.70;;;;;;;;;;5073526;28;20227;-50
2023/07/06 05:30:27;;;;;;;9.37;8.50;;;;;;;;;;5073486;28;20196;-50
2023/07/06 05:32:55;;;;;;;10.43;8.80;;;;;;;;;;5073119;28;20196;-51
2023/07/06 05:35:22;;;;;;;9.30;8.43;;;;;;;;;;5073508;28;20208;-51
2023/07/06 05:37:49;;;;;;;9.57;8.67;;;;;;;;;;5073269;28;20237;-52
2023/07/06 05:40:15;;;;;;;10.20;9.13;;;;;;;;;;5073749;28;20203;-51
2023/07/06 05:42:41;;;;;;;10.27;9.10;;;;;;;;;;5073113;28;20239;-52
2023/07/06 05:45:08;;;;;;;10.60;9.67;;;;;;;;;;5073162;28;20204;-52
2023/07/06 05:47:35;;;;;;;11.13;9.73;;;;;;;;;;5073120;28;20242;-51
2023/07/06 05:50:02;;;;;;;14.27;9.87;;;;;;;;;;5073094;28;20195;-51
2023/07/06 05:52:28;;;;;;;12.07;10.10;;;;;;;;;;5073390;28;20287;-51
2023/07/06 05:54:54;;;;;;;11.00;9.87;;;;;;;;;;5072902;28;20598;-52
2023/07/06 05:57:20;;;;;;;11.43;10.10;;;;;;;;;;5072925;28;20286;-52
2023/07/06 05:59:46;;;;;;;10.67;9.57;;;;;;;;;;5073010;28;20362;-51
2023/07/06 06:02:15;;;;;;;11.10;9.80;;;;;;;;;;5072799;28;20200;-52
2023/07/06 06:04:41;;;;;;;10.53;9.37;;;;;;;;;;5072834;28;20220;-52
2023/07/06 06:07:09;;;;;;;10.67;9.57;;;;;;;;;;5072455;28;20684;-51
2023/07/06 06:09:35;;;;;;;11.90;9.23;;;;;;;;;;5072792;28;20270;-53
2023/07/06 06:12:04;;;;;;;13.53;9.73;;;;;;;;;;5072588;28;20195;-53
2023/07/06 06:14:30;;;;;;;11.07;9.80;;;;;;;;;;5072447;28;20238;-53
2023/07/06 06:16:56;;;;;;;11.67;10.53;;;;;;;;;;5072533;28;20211;-53
2023/07/06 06:19:23;;;;;;;10.93;9.63;;;;;;;;;;5072576;28;20245;-53
2023/07/06 06:21:49;;;;;;;11.77;10.37;;;;;;;;;;5072203;28;20575;-53
2023/07/06 06:24:17;;;;;;;10.13;9.00;;;;;;;;;;5072625;28;20283;-54
2023/07/06 06:26:43;;;;;;;11.90;9.27;;;;;;;;;;5072302;28;20199;-54
2023/07/06 06:29:09;;;;;;;10.47;9.37;;;;;;;;;;5072062;28;20234;-53
2023/07/06 06:31:36;;;;;;;12.70;10.07;;;;;;;;;;5071796;28;20720;-54
2023/07/06 06:34:02;;;;;;;14.10;10.50;;;;;;;;;;5072235;28;20214;-54
2023/07/06 06:36:29;;;;;;;11.93;10.10;;;;;;;;;;5072173;28;20627;-53
2023/07/06 06:38:55;;;;;;;11.40;9.73;;;;;;;;;;5072132;28;20198;-53
2023/07/06 06:41:22;;;;;;;9.47;8.43;;;;;;;;;;5072176;28;20196;-52
2023/07/06 06:43:48;;;;;;;11.97;8.70;;;;;;;;;;5071806;28;20234;-51
2023/07/06 06:46:14;;;;;;;11.30;9.63;;;;;;;;;;5071986;28;20203;-52
2023/07/06 06:48:40;;;;;;;11.63;9.73;;;;;;;;;;5071946;28;20247;-52
2023/07/06 06:51:10;;;;;;;13.07;9.13;;;;;;;;;;5072062;28;20204;-53
2023/07/06 06:53:39;;;;;;;12.63;9.67;;;;;;;;;;5072063;28;20674;-54
2023/07/06 06:56:06;;;;;;;10.43;8.30;;;;;;;;;;5072079;28;20203;-53
2023/07/06 06:58:35;;;;;;;11.53;9.03;;;;;;;;;;5072099;28;20203;-54
2023/07/06 07:01:02;;;;;;;10.67;8.33;;;;;;;;;;5071982;28;20204;-53
2023/07/06 07:03:28;;;;;;;11.67;8.20;;;;;;;;;;5071782;28;20566;-54
2023/07/06 07:05:58;;;;;;;9.00;7.60;;;;;;;;;;5071184;28;20664;-54
2023/07/06 07:08:24;;;;;;;11.73;7.93;;;;;;;;;;5071312;28;20232;-54
2023/07/06 07:10:52;;;;;;;10.17;8.77;;;;;;;;;;5071439;28;20211;-54
2023/07/06 07:13:18;;;;;;;11.80;8.93;;;;;;;;;;5071321;28;20670;-54
2023/07/06 07:15:46;;;;;;;13.83;9.10;;;;;;;;;;5071204;28;20252;-54
2023/07/06 07:18:12;;;;;;;11.57;8.07;;;;;;;;;;5071103;28;20199;-54
2023/07/06 07:20:38;;;;;;;11.17;7.47;;;;;;;;;;5070895;28;20188;-54
2023/07/06 07:23:05;;;;;;;8.57;7.20;;;;;;;;;;5071137;28;20204;-55
2023/07/06 07:25:31;;;;;;;9.50;7.73;;;;;;;;;;5071192;28;20204;-55
2023/07/06 07:27:57;;;;;;;9.73;7.90;;;;;;;;;;5070991;28;20307;-54
2023/07/06 07:30:23;;;;;;;11.77;7.47;;;;;;;;;;5071152;28;20290;-55
2023/07/06 07:32:50;;;;;;;11.60;7.13;;;;;;;;;;5070944;28;20731;-54
2023/07/06 07:35:18;;;;;;;11.07;7.13;;;;;;;;;;5070780;28;20254;-55
2023/07/06 07:37:50;;;;;;;7.53;5.83;;;;;;;;;;5071007;28;20201;-53
2023/07/06 07:40:17;;;;;;;9.60;6.20;;;;;;;;;;5071010;28;20224;-54
2023/07/06 07:42:46;;;;;;;9.70;6.80;;;;;;;;;;5069950;28;20242;-55
2023/07/06 07:45:13;;;;;;;10.73;6.67;;;;;;;;;;5070789;28;20297;-54
2023/07/06 07:47:39;;;;;;;7.80;5.83;;;;;;;;;;5070835;28;20272;-54
2023/07/06 07:50:07;;;;;;;6.93;4.97;;;;;;;;;;5071022;28;20206;-54
2023/07/06 07:52:34;;;;;;;8.13;5.37;;;;;;;;;;5070773;28;20244;-54
2023/07/06 07:55:00;;;;;;;8.90;5.30;;;;;;;;;;5070507;28;20218;-53
2023/07/06 07:57:30;;;;;;;7.83;5.03;;;;;;;;;;5070855;28;20612;-55
2023/07/06 07:59:56;;;;;;;6.27;4.47;;;;;;;;;;5070608;28;20203;-54
2023/07/06 08:02:22;;;;;;;5.03;3.97;;;;;;;;;;5070987;28;20245;-55
2023/07/06 08:04:48;;;;;;;8.03;4.10;;;;;;;;;;5070673;28;20218;-54
2023/07/06 08:07:16;;;;;;;7.60;4.30;;;;;;;;;;5070540;28;20199;-53
2023/07/06 08:09:42;;;;;;;6.90;3.87;;;;;;;;;;5070573;28;20212;-54
2023/07/06 08:12:08;;;;;;;5.63;4.23;;;;;;;;;;5070612;28;20235;-54
2023/07/06 08:14:35;;;;;;;5.13;3.77;;;;;;;;;;5070584;28;20458;-54
2023/07/06 08:17:04;;;;;;;7.90;4.47;;;;;;;;;;5070433;28;20199;-54
2023/07/06 08:19:30;;;;;;;8.23;5.10;;;;;;;;;;5070590;28;20219;-54
2023/07/06 08:21:56;;;;;;;6.87;4.87;;;;;;;;;;5070460;28;20217;-54
2023/07/06 08:24:24;;;;;;;7.27;4.77;;;;;;;;;;5070457;28;20192;-54
2023/07/06 08:26:50;;;;;;;8.03;4.87;;;;;;;;;;5070416;28;20199;-54
2023/07/06 08:29:17;;;;;;;9.83;4.50;;;;;;;;;;5070348;28;20779;-54
2023/07/06 08:31:45;;;;;;;6.83;4.03;;;;;;;;;;5070443;28;20202;-54
2023/07/06 08:34:12;;;;;;;8.47;3.50;;;;;;;;;;5070340;28;20222;-54
2023/07/06 08:36:38;;;;;;;5.60;3.37;;;;;;;;;;5070328;28;20203;-55
2023/07/06 08:39:05;;;;;;;7.10;3.70;;;;;;;;;;5070478;28;20286;-54
2023/07/06 08:41:34;;;;;;;7.43;3.63;;;;;;;;;;5070479;28;20253;-54
2023/07/06 08:44:02;;;;;;;6.57;3.57;;;;;;;;;;5069914;28;20252;-54
2023/07/06 08:46:28;;;;;;;5.90;3.30;;;;;;;;;;5070145;28;20253;-55
2023/07/06 08:48:54;;;;;;;5.40;3.30;;;;;;;;;;5069998;28;20227;-54
2023/07/06 08:51:22;;;;;;;5.07;3.10;;;;;;;;;;5070276;28;20535;-54
2023/07/06 08:53:51;;;;;;;6.87;3.30;;;;;;;;;;5071657;28;20207;-54
2023/07/06 08:56:18;;;;;;;7.43;3.33;;;;;;;;;;5074462;28;20203;-54
2023/07/06 08:58:46;;;;;;;5.83;3.10;;;;;;;;;;5074296;28;20195;-54
2023/07/06 09:01:13;;;;;;;4.93;3.00;;;;;;;;;;5074245;28;20242;-54
2023/07/06 09:03:41;;;;;;;8.20;2.83;;;;;;;;;;5074327;28;20232;-54
2023/07/06 09:06:08;;;;;;;5.33;2.40;;;;;;;;;;5074055;28;20670;-54
2023/07/06 09:08:34;;;;;;;6.27;2.73;;;;;;;;;;5074184;28;20223;-55
2023/07/06 09:11:01;;;;;;;4.43;2.60;;;;;;;;;;5074072;28;20257;-53
2023/07/06 09:13:28;;;;;;;3.60;2.47;;;;;;;;;;5074159;28;20229;-53
2023/07/06 09:15:56;;;;;;;5.70;2.60;;;;;;;;;;5073796;28;20199;-54
2023/07/06 09:18:23;;;;;;;4.63;2.30;;;;;;;;;;5074051;28;20206;-55
2023/07/06 09:20:50;;;;;;;4.80;2.63;;;;;;;;;;5073928;28;20230;-55
2023/07/06 09:23:16;;;;;;;6.47;2.67;;;;;;;;;;5073700;28;20206;-54
2023/07/06 09:25:43;;;;;;;4.27;2.70;;;;;;;;;;5073931;28;20226;-54
2023/07/06 09:28:16;;;;;;;3.73;2.40;;;;;;;;;;5073660;28;20225;-52
2023/07/06 09:30:42;;;;;;;5.33;2.77;;;;;;;;;;5073752;28;20210;-53
2023/07/06 09:33:16;;;;;;;2.90;2.50;;;;;;;;;;5073570;28;20201;-55
2023/07/06 09:35:43;;;;;;;4.97;2.63;;;;;;;;;;5073407;28;20578;-56
2023/07/06 09:38:12;;;;;;;5.37;2.77;;;;;;;;;;5073337;28;20549;-55
2023/07/06 09:40:38;;;;;;;4.03;2.47;;;;;;;;;;5061432;28;20205;-52
2023/07/06 09:43:04;;;;;;;3.10;2.30;;;;;;;;;;5073115;28;20230;-49
2023/07/06 09:45:31;;;;;;;4.40;2.20;;;;;;;;;;5073251;28;20723;-52
2023/07/06 09:48:01;;;;;;;5.30;2.53;;;;;;;;;;5072812;28;20682;-51
2023/07/06 09:50:32;;;;;;;4.87;2.23;;;;;;;;;;5051121;28;20211;-53
2023/07/06 09:52:59;;;;;;;4.93;2.40;;;;;;;;;;5053249;28;20204;-52
2023/07/06 09:55:29;;;;;;;4.13;2.47;;;;;;;;;;5053007;28;20197;-52
2023/07/06 09:57:55;;;;;;;6.10;2.27;;;;;;;;;;5052820;28;20201;-51
2023/07/06 10:00:22;;;;;;;5.00;2.53;;;;;;;;;;5052788;28;20215;-52
2023/07/06 10:02:56;;;;;;;2.83;2.23;;;;;;;;;;5052867;28;20208;-50
2023/07/06 10:05:27;;;;;;;5.03;2.20;;;;;;;;;;5052050;28;20220;-54
2023/07/06 10:07:57;;;;;;;7.03;2.10;;;;;;;;;;5052606;28;20286;-53
2023/07/06 10:10:32;;;;;;;7.43;2.23;;;;;;;;;;5052788;28;20285;-53
2023/07/06 10:13:01;;;;;;;3.87;2.10;;;;;;;;;;5052724;28;20196;-54
2023/07/06 10:15:30;;;;;;;3.13;2.10;;;;;;;;;;5052701;28;20212;-51
2023/07/06 10:18:00;;;;;;;2.80;1.83;;;;;;;;;;5052485;28;20659;-53
2023/07/06 10:20:30;;;;;;;3.17;2.07;;;;;;;;;;5052699;28;20203;-52
2023/07/06 10:23:04;;;;;;;3.37;1.93;;;;;;;;;;5052618;28;20214;-52
2023/07/06 10:25:33;;;;;;;4.10;2.07;;;;;;;;;;5052554;28;20204;-53
2023/07/06 10:28:03;;;;;;;3.10;2.30;;;;;;;;;;5052279;28;20223;-52
2023/07/06 10:30:32;;;;;;;3.37;2.10;;;;;;;;;;5052462;28;20207;-53
2023/07/06 10:33:02;;;;;;;3.77;1.93;;;;;;;;;;5052628;28;20203;-52
2023/07/06 10:35:30;;;;;;;3.90;2.27;;;;;;;;;;5052563;28;20291;-53
2023/07/06 10:37:57;;;;;;;7.33;2.00;;;;;;;;;;5052364;28;20195;-53
2023/07/06 10:40:25;;;;;;;3.97;2.30;;;;;;;;;;5052548;28;20216;-53
2023/07/06 10:43:06;;;;;;;3.33;2.27;;;;;;;;;;5052477;28;20335;-53
2023/07/06 10:45:39;;;;;;;4.10;2.00;;;;;;;;;;5052330;28;20207;-53
2023/07/06 10:48:15;;;;;;;5.57;2.37;;;;;;;;;;5052194;28;20723;-53
2023/07/06 10:50:49;;;;;;;3.33;2.00;;;;;;;;;;5051993;28;20200;-53
2023/07/06 10:53:17;;;;;;;2.70;2.10;;;;;;;;;;5052286;28;20209;-53
2023/07/06 10:55:54;;;;;;;4.60;2.00;;;;;;;;;;5052282;28;20196;-53
2023/07/06 10:58:25;;;;;;;4.47;1.80;;;;;;;;;;5051882;28;20196;-53
2023/07/06 11:00:52;;;;;;;2.60;1.90;;;;;;;;;;5051866;28;20286;-53
2023/07/06 11:03:21;;;;;;;3.23;1.73;;;;;;;;;;5051858;28;20529;-53
2023/07/06 11:05:55;;;;;;;5.57;2.30;;;;;;;;;;5051659;28;20238;-52
2023/07/06 11:08:36;;;;;;;4.80;1.87;;;;;;;;;;5051738;28;20228;-53
2023/07/06 11:11:03;;;;;;;2.23;1.90;;;;;;;;;;5051405;28;20303;-53
2023/07/06 11:13:32;;;;;;;3.33;2.00;;;;;;;;;;5051642;28;20206;-53
2023/07/06 11:16:04;;;;;;;7.30;2.13;;;;;;;;;;5051552;28;20609;-53
2023/07/06 11:18:34;;;;;;;3.33;2.00;;;;;;;;;;5051686;28;20192;-53
2023/07/06 11:21:02;;;;;;;4.20;1.90;;;;;;;;;;5051354;28;20208;-53
2023/07/06 11:23:32;;;;;;;3.20;2.00;;;;;;;;;;5051553;28;20234;-53
2023/07/06 11:25:59;;;;;;;4.47;1.80;;;;;;;;;;5051304;28;20196;-53
2023/07/06 11:28:27;;;;;;;4.37;2.00;;;;;;;;;;5051312;28;20236;-53
2023/07/06 11:30:57;;;;;;;3.50;2.10;;;;;;;;;;5051246;28;20204;-52
2023/07/06 11:33:27;;;;;;;6.80;2.27;;;;;;;;;;5051209;28;20191;-53
2023/07/06 11:35:56;;;;;;;5.20;2.00;;;;;;;;;;5051062;28;20698;-53
2023/07/06 11:38:51;;;;;;;3.43;2.10;;;;;;;;;;5051125;28;20659;-53
2023/07/06 11:41:25;;;;;;;2.30;1.67;;;;;;;;;;5051083;28;20253;-53
2023/07/06 11:43:59;;;;;;;2.57;1.70;;;;;;;;;;5051085;28;20324;-53
2023/07/06 11:46:31;;;;;;;4.00;2.00;;;;;;;;;;5051170;28;20619;-54
2023/07/06 11:49:02;;;;;;;2.83;1.80;;;;;;;;;;5050780;28;20237;-54
2023/07/06 11:51:29;;;;;;;2.43;1.70;;;;;;;;;;5050983;28;20192;-54
2023/07/06 11:53:59;;;;;;;3.23;1.87;;;;;;;;;;5050857;28;20205;-53
2023/07/06 11:56:50;;;;;;;3.23;1.90;;;;;;;;;;5051024;28;20209;-52
2023/07/06 11:59:36;;;;;;;3.87;1.90;;;;;;;;;;5050850;28;20204;-53
2023/07/06 12:02:07;;;;;;;2.47;1.80;;;;;;;;;;5050759;28;20224;-53
2023/07/06 12:04:34;;;;;;;3.07;1.90;;;;;;;;;;5050640;28;20248;-53
2023/07/06 12:07:08;;;;;;;3.73;2.10;;;;;;;;;;5050599;28;20200;-53
2023/07/06 12:09:34;;;;;;;4.97;2.10;;;;;;;;;;5050636;28;20711;-53
2023/07/06 12:12:02;;;;;;;3.83;2.20;;;;;;;;;;5050586;28;20200;-53
2023/07/06 12:14:34;;;;;;;3.17;1.93;;;;;;;;;;5050591;28;20199;-53
2023/07/06 12:17:01;;;;;;;3.57;1.87;;;;;;;;;;5050422;28;20262;-53
2023/07/06 12:19:28;;;;;;;2.67;1.47;;;;;;;;;;5050626;28;20203;-53
2023/07/06 12:21:55;;;;;;;2.30;1.90;;;;;;;;;;5050602;28;20606;-53
2023/07/06 12:24:22;;;;;;;1.90;1.70;;;;;;;;;;5050272;28;20200;-53
2023/07/06 12:26:50;;;;;;;3.20;1.80;;;;;;;;;;5050864;28;20284;-54
2023/07/06 12:29:16;;;;;;;3.23;1.90;;;;;;;;;;5052136;28;20707;-54
2023/07/06 12:31:44;;;;;;;2.30;1.70;;;;;;;;;;5054565;28;20675;-54
2023/07/06 12:34:16;;;;;;;3.27;1.90;;;;;;;;;;5054673;28;20212;-54
2023/07/06 12:36:43;;;;;;;3.53;2.00;;;;;;;;;;5054900;28;20562;-54
2023/07/06 12:39:13;;;;;;;2.17;1.60;;;;;;;;;;5054733;28;20196;-54
2023/07/06 12:41:39;;;;;;;4.53;2.00;;;;;;;;;;5054607;28;20203;-54
2023/07/06 12:44:06;;;;;;;4.33;1.93;;;;;;;;;;5054590;28;20242;-54
2023/07/06 12:46:33;;;;;;;2.30;1.97;;;;;;;;;;5054448;28;20204;-54
2023/07/06 12:49:02;;;;;;;2.60;1.70;;;;;;;;;;5054322;28;20229;-54
2023/07/06 12:51:28;;;;;;;2.43;1.80;;;;;;;;;;5054582;28;20212;-54
2023/07/06 12:53:55;;;;;;;2.33;1.73;;;;;;;;;;5054506;28;20681;-54
2023/07/06 12:56:22;;;;;;;3.27;1.80;;;;;;;;;;5054500;28;20193;-54
2023/07/06 12:58:54;;;;;;;2.07;1.70;;;;;;;;;;5054409;28;20735;-54
2023/07/06 13:01:21;;;;;;;3.23;1.97;;;;;;;;;;5054550;28;20233;-54
2023/07/06 13:03:52;;;;;;;5.10;2.10;;;;;;;;;;5054424;28;20221;-54
2023/07/06 13:06:19;;;;;;;2.17;1.63;;;;;;;;;;5054223;28;20846;-54
2023/07/06 13:08:46;;;;;;;2.23;1.60;;;;;;;;;;5054194;28;20233;-53
2023/07/06 13:11:15;;;;;;;2.07;1.60;;;;;;;;;;5053804;28;20552;-54
2023/07/06 13:13:43;;;;;;;6.10;1.80;;;;;;;;;;5054191;28;20203;-54
2023/07/06 13:16:11;;;;;;;4.63;1.87;;;;;;;;;;5053963;28;20198;-55
2023/07/06 13:18:37;;;;;;;2.97;1.73;;;;;;;;;;5054054;28;20657;-54
2023/07/06 13:21:06;;;;;;;2.83;1.70;;;;;;;;;;5054016;28;20199;-54
2023/07/06 13:23:33;;;;;;;4.67;1.60;;;;;;;;;;5054042;28;20210;-54
2023/07/06 13:25:59;;;;;;;4.33;1.70;;;;;;;;;;5053863;28;20205;-54
2023/07/06 13:28:26;;;;;;;2.87;1.63;;;;;;;;;;5054046;28;20308;-54
2023/07/06 13:30:53;;;;;;;4.90;1.77;;;;;;;;;;5054015;28;20227;-54
2023/07/06 13:33:19;;;;;;;3.43;1.50;;;;;;;;;;5053851;28;20235;-54
2023/07/06 13:35:46;;;;;;;2.57;1.87;;;;;;;;;;5053780;28;20220;-54
2023/07/06 13:38:13;;;;;;;3.60;1.80;;;;;;;;;;5053680;28;20730;-54
2023/07/06 13:40:41;;;;;;;3.83;2.03;;;;;;;;;;5052438;28;20205;-54
2023/07/06 13:43:10;;;;;;;3.90;1.90;;;;;;;;;;5053398;28;20242;-54
2023/07/06 13:45:37;;;;;;;4.60;1.80;;;;;;;;;;5053608;28;20723;-54
2023/07/06 13:48:03;;;;;;;3.37;1.73;;;;;;;;;;5053305;28;20292;-54
2023/07/06 13:50:31;;;;;;;3.73;1.90;;;;;;;;;;5053367;28;20569;-54
2023/07/06 13:52:57;;;;;;;4.77;2.10;;;;;;;;;;5053496;28;20204;-54
2023/07/06 13:55:24;;;;;;;4.33;1.83;;;;;;;;;;5053364;28;20559;-54
2023/07/06 13:57:52;;;;;;;3.43;1.93;;;;;;;;;;5053441;28;20202;-54
2023/07/06 14:00:19;;;;;;;2.53;1.77;;;;;;;;;;5053268;28;20221;-54
2023/07/06 14:02:48;;;;;;;2.10;1.70;;;;;;;;;;5053321;28;20199;-54
2023/07/06 14:05:15;;;;;;;2.87;1.77;;;;;;;;;;5052972;28;20227;-54
2023/07/06 14:07:41;;;;;;;3.90;1.93;;;;;;;;;;5053199;28;20202;-54
2023/07/06 14:10:08;;;;;;;3.47;1.93;;;;;;;;;;5052935;28;20234;-54
2023/07/06 14:12:34;;;;;;;4.00;2.00;;;;;;;;;;5052970;28;20205;-54
2023/07/06 14:15:01;;;;;;;3.13;1.60;;;;;;;;;;5052925;28;20238;-54
2023/07/06 14:17:27;;;;;;;3.27;1.90;;;;;;;;;;5052976;28;20204;-54
2023/07/06 14:19:53;;;;;;;2.33;1.60;;;;;;;;;;5052867;28;20537;-54
2023/07/06 14:22:22;;;;;;;3.37;2.10;;;;;;;;;;5052912;28;20237;-54
2023/07/06 14:24:51;;;;;;;3.30;2.00;;;;;;;;;;5052947;28;20225;-54
2023/07/06 14:27:19;;;;;;;4.30;1.90;;;;;;;;;;5052603;28;20199;-54
2023/07/06 14:29:45;;;;;;;3.00;1.73;;;;;;;;;;5052669;28;20301;-54
2023/07/06 14:32:16;;;;;;;2.43;1.80;;;;;;;;;;5052588;28;20289;-54
2023/07/06 14:34:42;;;;;;;3.70;2.07;;;;;;;;;;5052602;28;20582;-54
2023/07/06 14:37:08;;;;;;;3.23;1.73;;;;;;;;;;5052531;28;20193;-54
2023/07/06 14:39:34;;;;;;;3.20;1.90;;;;;;;;;;5052484;28;20207;-54
2023/07/06 14:42:00;;;;;;;5.33;2.03;;;;;;;;;;5052333;28;20269;-54